Sylvan Township, Michigan
Current Conditions -  °F | °C
As of 8:53 AM on Sunday 23 Nov 2014 (Local Time) from KARB Reporting Station
Haze Haze  
Wind Chill: 41°   Ceiling: 500
Heat Index: 45°   Visibility: 5mi
Dew Point: 42°   Wind: 7mph
Humidity: 90%   Direction: 190°S
Pressure: 29.92"   Gusts: NA
Location:  42.3129°N, 84.0322°W
Report Text: KARB 231353Z 19006KT 5SM BR BKN005 OVC036 07/06 A2992 RMK AO2 SLP137 T00720056
Loading
Personal Weather Stations






























Interactive Weather Map New forecast layout! Learn more

10-Day Weather Forecast

Advertisements
Track Severe Weather on mobile